sensor_id;sensor_type;location;lat;lon;timestamp;P1;durP1;ratioP1;P2;durP2;ratioP2
60464;SDS011;46314;52.392;9.758;2024-03-07T00:01:25;18.40;;;13.48;;
60464;SDS011;46314;52.392;9.758;2024-03-07T00:03:52;16.30;;;13.95;;
60464;SDS011;46314;52.392;9.758;2024-03-07T00:06:18;15.30;;;13.05;;
60464;SDS011;46314;52.392;9.758;2024-03-07T00:08:45;18.83;;;13.88;;
60464;SDS011;46314;52.392;9.758;2024-03-07T00:11:11;19.75;;;13.20;;
60464;SDS011;46314;52.392;9.758;2024-03-07T00:13:39;17.95;;;12.63;;
60464;SDS011;46314;52.392;9.758;2024-03-07T00:16:05;15.65;;;13.48;;
60464;SDS011;46314;52.392;9.758;2024-03-07T00:18:32;20.67;;;15.15;;
60464;SDS011;46314;52.392;9.758;2024-03-07T00:20:58;17.58;;;14.93;;
60464;SDS011;46314;52.392;9.758;2024-03-07T00:23:25;16.95;;;14.68;;
60464;SDS011;46314;52.392;9.758;2024-03-07T00:25:51;19.65;;;14.82;;
60464;SDS011;46314;52.392;9.758;2024-03-07T00:28:18;18.45;;;14.95;;
60464;SDS011;46314;52.392;9.758;2024-03-07T00:30:46;18.40;;;14.60;;
60464;SDS011;46314;52.392;9.758;2024-03-07T00:33:12;15.50;;;13.55;;
60464;SDS011;46314;52.392;9.758;2024-03-07T00:35:39;19.25;;;14.48;;
60464;SDS011;46314;52.392;9.758;2024-03-07T00:38:05;17.42;;;13.90;;
60464;SDS011;46314;52.392;9.758;2024-03-07T00:40:32;18.00;;;15.10;;
60464;SDS011;46314;52.392;9.758;2024-03-07T00:42:58;20.23;;;15.52;;
60464;SDS011;46314;52.392;9.758;2024-03-07T00:45:26;16.90;;;14.35;;
60464;SDS011;46314;52.392;9.758;2024-03-07T00:47:54;17.17;;;14.27;;
60464;SDS011;46314;52.392;9.758;2024-03-07T00:50:21;16.77;;;13.55;;
60464;SDS011;46314;52.392;9.758;2024-03-07T00:52:47;16.13;;;13.82;;
60464;SDS011;46314;52.392;9.758;2024-03-07T00:55:14;18.52;;;14.93;;
60464;SDS011;46314;52.392;9.758;2024-03-07T00:57:40;18.00;;;14.45;;
60464;SDS011;46314;52.392;9.758;2024-03-07T01:00:07;20.13;;;16.20;;
60464;SDS011;46314;52.392;9.758;2024-03-07T01:02:35;19.60;;;14.77;;
60464;SDS011;46314;52.392;9.758;2024-03-07T01:05:03;20.05;;;15.80;;
60464;SDS011;46314;52.392;9.758;2024-03-07T01:07:30;20.08;;;15.50;;
60464;SDS011;46314;52.392;9.758;2024-03-07T01:09:56;20.95;;;15.90;;
60464;SDS011;46314;52.392;9.758;2024-03-07T01:12:22;21.98;;;16.63;;
60464;SDS011;46314;52.392;9.758;2024-03-07T01:14:49;20.67;;;15.25;;
60464;SDS011;46314;52.392;9.758;2024-03-07T01:17:16;18.48;;;14.75;;
60464;SDS011;46314;52.392;9.758;2024-03-07T01:19:42;24.02;;;16.40;;
60464;SDS011;46314;52.392;9.758;2024-03-07T01:22:10;19.08;;;14.45;;
60464;SDS011;46314;52.392;9.758;2024-03-07T01:24:36;18.02;;;14.57;;
60464;SDS011;46314;52.392;9.758;2024-03-07T01:27:03;16.80;;;15.00;;
60464;SDS011;46314;52.392;9.758;2024-03-07T01:29:29;19.10;;;15.45;;
60464;SDS011;46314;52.392;9.758;2024-03-07T01:31:56;18.58;;;15.45;;
60464;SDS011;46314;52.392;9.758;2024-03-07T01:34:22;18.15;;;15.13;;
60464;SDS011;46314;52.392;9.758;2024-03-07T01:36:48;18.95;;;14.25;;
60464;SDS011;46314;52.392;9.758;2024-03-07T01:39:16;17.80;;;14.32;;
60464;SDS011;46314;52.392;9.758;2024-03-07T01:41:43;21.90;;;14.05;;
60464;SDS011;46314;52.392;9.758;2024-03-07T01:44:09;18.25;;;14.45;;
60464;SDS011;46314;52.392;9.758;2024-03-07T01:46:36;21.27;;;15.57;;
60464;SDS011;46314;52.392;9.758;2024-03-07T01:49:02;16.85;;;13.65;;
60464;SDS011;46314;52.392;9.758;2024-03-07T01:51:29;21.48;;;15.75;;
60464;SDS011;46314;52.392;9.758;2024-03-07T01:53:55;19.98;;;14.68;;
60464;SDS011;46314;52.392;9.758;2024-03-07T01:56:24;18.77;;;15.48;;
60464;SDS011;46314;52.392;9.758;2024-03-07T01:58:50;20.38;;;16.10;;
60464;SDS011;46314;52.392;9.758;2024-03-07T02:01:18;20.75;;;15.60;;
60464;SDS011;46314;52.392;9.758;2024-03-07T02:03:44;21.45;;;16.35;;
60464;SDS011;46314;52.392;9.758;2024-03-07T02:06:11;18.33;;;15.15;;
60464;SDS011;46314;52.392;9.758;2024-03-07T02:08:38;18.17;;;14.80;;
60464;SDS011;46314;52.392;9.758;2024-03-07T02:11:04;16.30;;;13.95;;
60464;SDS011;46314;52.392;9.758;2024-03-07T02:13:32;19.30;;;14.95;;
60464;SDS011;46314;52.392;9.758;2024-03-07T02:15:59;17.95;;;14.52;;
60464;SDS011;46314;52.392;9.758;2024-03-07T02:18:25;19.58;;;15.25;;
60464;SDS011;46314;52.392;9.758;2024-03-07T02:20:53;20.08;;;14.70;;
60464;SDS011;46314;52.392;9.758;2024-03-07T02:23:20;21.35;;;14.35;;
60464;SDS011;46314;52.392;9.758;2024-03-07T02:25:46;18.02;;;14.35;;
60464;SDS011;46314;52.392;9.758;2024-03-07T02:28:13;17.65;;;13.73;;
60464;SDS011;46314;52.392;9.758;2024-03-07T02:30:39;20.58;;;15.40;;
60464;SDS011;46314;52.392;9.758;2024-03-07T02:33:06;17.60;;;14.77;;
60464;SDS011;46314;52.392;9.758;2024-03-07T02:35:33;18.90;;;15.80;;
60464;SDS011;46314;52.392;9.758;2024-03-07T02:38:01;20.45;;;14.85;;
60464;SDS011;46314;52.392;9.758;2024-03-07T02:40:28;19.67;;;14.95;;
60464;SDS011;46314;52.392;9.758;2024-03-07T02:42:54;18.85;;;14.27;;
60464;SDS011;46314;52.392;9.758;2024-03-07T02:45:21;19.27;;;14.05;;
60464;SDS011;46314;52.392;9.758;2024-03-07T02:47:49;20.40;;;15.20;;
60464;SDS011;46314;52.392;9.758;2024-03-07T02:50:15;25.35;;;14.45;;
60464;SDS011;46314;52.392;9.758;2024-03-07T02:52:42;18.58;;;14.90;;
60464;SDS011;46314;52.392;9.758;2024-03-07T02:55:10;17.45;;;13.85;;
60464;SDS011;46314;52.392;9.758;2024-03-07T02:57:36;21.35;;;15.13;;
60464;SDS011;46314;52.392;9.758;2024-03-07T03:00:03;19.45;;;14.63;;
60464;SDS011;46314;52.392;9.758;2024-03-07T03:02:31;18.27;;;14.35;;
60464;SDS011;46314;52.392;9.758;2024-03-07T03:04:57;20.60;;;14.50;;
60464;SDS011;46314;52.392;9.758;2024-03-07T03:07:24;21.80;;;16.67;;
60464;SDS011;46314;52.392;9.758;2024-03-07T03:09:50;21.10;;;15.07;;
60464;SDS011;46314;52.392;9.758;2024-03-07T03:12:18;19.48;;;14.65;;
60464;SDS011;46314;52.392;9.758;2024-03-07T03:14:44;18.30;;;14.63;;
60464;SDS011;46314;52.392;9.758;2024-03-07T03:17:11;21.17;;;16.08;;
60464;SDS011;46314;52.392;9.758;2024-03-07T03:19:37;17.65;;;14.50;;
60464;SDS011;46314;52.392;9.758;2024-03-07T03:22:04;17.38;;;14.98;;
60464;SDS011;46314;52.392;9.758;2024-03-07T03:24:31;20.70;;;15.50;;
60464;SDS011;46314;52.392;9.758;2024-03-07T03:26:57;17.25;;;14.70;;
60464;SDS011;46314;52.392;9.758;2024-03-07T03:29:25;23.20;;;15.75;;
60464;SDS011;46314;52.392;9.758;2024-03-07T03:31:52;22.13;;;15.38;;
60464;SDS011;46314;52.392;9.758;2024-03-07T03:34:18;20.77;;;15.80;;
60464;SDS011;46314;52.392;9.758;2024-03-07T03:36:45;19.80;;;14.98;;
60464;SDS011;46314;52.392;9.758;2024-03-07T03:39:11;21.83;;;17.08;;
60464;SDS011;46314;52.392;9.758;2024-03-07T03:41:38;25.15;;;16.00;;
60464;SDS011;46314;52.392;9.758;2024-03-07T03:44:04;21.92;;;16.23;;
60464;SDS011;46314;52.392;9.758;2024-03-07T03:46:32;22.15;;;16.85;;
60464;SDS011;46314;52.392;9.758;2024-03-07T03:48:58;21.90;;;16.55;;
60464;SDS011;46314;52.392;9.758;2024-03-07T03:51:25;20.65;;;15.35;;
60464;SDS011;46314;52.392;9.758;2024-03-07T03:53:51;21.08;;;16.00;;
60464;SDS011;46314;52.392;9.758;2024-03-07T03:56:18;19.50;;;16.52;;
60464;SDS011;46314;52.392;9.758;2024-03-07T03:58:45;21.00;;;15.95;;
60464;SDS011;46314;52.392;9.758;2024-03-07T04:01:11;21.52;;;17.63;;
60464;SDS011;46314;52.392;9.758;2024-03-07T04:03:39;18.90;;;15.75;;
60464;SDS011;46314;52.392;9.758;2024-03-07T04:06:05;18.63;;;15.82;;
60464;SDS011;46314;52.392;9.758;2024-03-07T04:08:32;23.88;;;16.25;;
60464;SDS011;46314;52.392;9.758;2024-03-07T04:10:58;19.88;;;16.55;;
60464;SDS011;46314;52.392;9.758;2024-03-07T04:13:25;19.80;;;15.88;;
60464;SDS011;46314;52.392;9.758;2024-03-07T04:15:51;20.77;;;16.08;;
60464;SDS011;46314;52.392;9.758;2024-03-07T04:18:18;20.80;;;15.82;;
60464;SDS011;46314;52.392;9.758;2024-03-07T04:20:45;23.30;;;17.35;;
60464;SDS011;46314;52.392;9.758;2024-03-07T04:23:12;23.45;;;15.35;;
60464;SDS011;46314;52.392;9.758;2024-03-07T04:25:39;21.55;;;17.00;;
60464;SDS011;46314;52.392;9.758;2024-03-07T04:28:05;21.67;;;16.45;;
60464;SDS011;46314;52.392;9.758;2024-03-07T04:30:32;23.77;;;17.83;;
60464;SDS011;46314;52.392;9.758;2024-03-07T04:32:58;23.33;;;17.25;;
60464;SDS011;46314;52.392;9.758;2024-03-07T04:35:25;22.08;;;18.10;;
60464;SDS011;46314;52.392;9.758;2024-03-07T04:37:53;23.13;;;18.50;;
60464;SDS011;46314;52.392;9.758;2024-03-07T04:40:19;21.15;;;16.83;;
60464;SDS011;46314;52.392;9.758;2024-03-07T04:42:46;24.70;;;18.85;;
60464;SDS011;46314;52.392;9.758;2024-03-07T04:45:14;23.95;;;17.67;;
60464;SDS011;46314;52.392;9.758;2024-03-07T04:47:41;20.50;;;16.10;;
60464;SDS011;46314;52.392;9.758;2024-03-07T04:50:08;23.85;;;17.90;;
60464;SDS011;46314;52.392;9.758;2024-03-07T04:52:35;23.65;;;18.55;;
60464;SDS011;46314;52.392;9.758;2024-03-07T04:55:03;22.10;;;17.50;;
60464;SDS011;46314;52.392;9.758;2024-03-07T04:57:30;23.75;;;19.17;;
60464;SDS011;46314;52.392;9.758;2024-03-07T04:59:56;22.00;;;17.80;;
60464;SDS011;46314;52.392;9.758;2024-03-07T05:02:23;24.60;;;18.50;;
60464;SDS011;46314;52.392;9.758;2024-03-07T05:04:50;26.50;;;18.80;;
60464;SDS011;46314;52.392;9.758;2024-03-07T05:07:16;24.85;;;19.35;;
60464;SDS011;46314;52.392;9.758;2024-03-07T05:09:42;23.75;;;18.95;;
60464;SDS011;46314;52.392;9.758;2024-03-07T05:12:10;26.02;;;19.38;;
60464;SDS011;46314;52.392;9.758;2024-03-07T05:14:37;23.02;;;18.92;;
60464;SDS011;46314;52.392;9.758;2024-03-07T05:17:03;29.83;;;21.25;;
60464;SDS011;46314;52.392;9.758;2024-03-07T05:19:30;23.95;;;19.50;;
60464;SDS011;46314;52.392;9.758;2024-03-07T05:21:57;26.95;;;20.83;;
60464;SDS011;46314;52.392;9.758;2024-03-07T05:24:24;26.85;;;19.50;;
60464;SDS011;46314;52.392;9.758;2024-03-07T05:26:50;26.27;;;20.63;;
60464;SDS011;46314;52.392;9.758;2024-03-07T05:29:18;28.40;;;21.23;;
60464;SDS011;46314;52.392;9.758;2024-03-07T05:31:45;25.70;;;18.98;;
60464;SDS011;46314;52.392;9.758;2024-03-07T05:34:11;28.58;;;20.75;;
60464;SDS011;46314;52.392;9.758;2024-03-07T05:36:38;29.02;;;20.58;;
60464;SDS011;46314;52.392;9.758;2024-03-07T05:39:05;25.10;;;19.58;;
60464;SDS011;46314;52.392;9.758;2024-03-07T05:41:31;27.35;;;23.65;;
60464;SDS011;46314;52.392;9.758;2024-03-07T05:43:58;27.83;;;20.65;;
60464;SDS011;46314;52.392;9.758;2024-03-07T05:46:26;29.63;;;21.88;;
60464;SDS011;46314;52.392;9.758;2024-03-07T05:48:53;30.02;;;20.92;;
60464;SDS011;46314;52.392;9.758;2024-03-07T05:51:19;33.53;;;23.05;;
60464;SDS011;46314;52.392;9.758;2024-03-07T05:53:46;29.50;;;22.70;;
60464;SDS011;46314;52.392;9.758;2024-03-07T05:56:12;33.67;;;21.77;;
60464;SDS011;46314;52.392;9.758;2024-03-07T05:58:39;36.90;;;24.10;;
60464;SDS011;46314;52.392;9.758;2024-03-07T06:01:05;32.22;;;23.30;;
60464;SDS011;46314;52.392;9.758;2024-03-07T06:03:33;34.88;;;24.98;;
60464;SDS011;46314;52.392;9.758;2024-03-07T06:05:59;35.22;;;23.88;;
60464;SDS011;46314;52.392;9.758;2024-03-07T06:08:26;34.15;;;23.42;;
60464;SDS011;46314;52.392;9.758;2024-03-07T06:10:52;37.08;;;24.95;;
60464;SDS011;46314;52.392;9.758;2024-03-07T06:13:19;37.20;;;23.77;;
60464;SDS011;46314;52.392;9.758;2024-03-07T06:15:46;34.38;;;25.33;;
60464;SDS011;46314;52.392;9.758;2024-03-07T06:18:12;43.55;;;27.02;;
60464;SDS011;46314;52.392;9.758;2024-03-07T06:20:41;48.05;;;28.58;;
60464;SDS011;46314;52.392;9.758;2024-03-07T06:23:08;44.50;;;27.65;;
60464;SDS011;46314;52.392;9.758;2024-03-07T06:25:35;43.92;;;27.65;;
60464;SDS011;46314;52.392;9.758;2024-03-07T06:28:02;41.25;;;27.52;;
60464;SDS011;46314;52.392;9.758;2024-03-07T06:30:29;40.97;;;27.77;;
60464;SDS011;46314;52.392;9.758;2024-03-07T06:32:56;48.60;;;28.40;;
60464;SDS011;46314;52.392;9.758;2024-03-07T06:35:22;46.10;;;29.27;;
60464;SDS011;46314;52.392;9.758;2024-03-07T06:37:50;53.60;;;31.58;;
60464;SDS011;46314;52.392;9.758;2024-03-07T06:40:17;57.72;;;32.88;;
60464;SDS011;46314;52.392;9.758;2024-03-07T06:42:43;48.15;;;28.95;;
60464;SDS011;46314;52.392;9.758;2024-03-07T06:45:10;51.53;;;30.33;;
60464;SDS011;46314;52.392;9.758;2024-03-07T06:47:37;60.75;;;32.05;;
60464;SDS011;46314;52.392;9.758;2024-03-07T06:50:04;60.00;;;33.85;;
60464;SDS011;46314;52.392;9.758;2024-03-07T06:52:31;55.42;;;32.67;;
60464;SDS011;46314;52.392;9.758;2024-03-07T06:54:58;55.65;;;31.73;;
60464;SDS011;46314;52.392;9.758;2024-03-07T06:57:25;57.83;;;32.42;;
60464;SDS011;46314;52.392;9.758;2024-03-07T06:59:52;61.35;;;34.45;;
60464;SDS011;46314;52.392;9.758;2024-03-07T07:02:19;57.78;;;33.72;;
60464;SDS011;46314;52.392;9.758;2024-03-07T07:04:45;52.03;;;30.75;;
60464;SDS011;46314;52.392;9.758;2024-03-07T07:07:12;57.95;;;32.38;;
60464;SDS011;46314;52.392;9.758;2024-03-07T07:09:38;58.60;;;33.15;;
60464;SDS011;46314;52.392;9.758;2024-03-07T07:12:09;61.00;;;33.83;;
60464;SDS011;46314;52.392;9.758;2024-03-07T07:14:35;62.08;;;34.40;;
60464;SDS011;46314;52.392;9.758;2024-03-07T07:17:02;54.45;;;32.83;;
60464;SDS011;46314;52.392;9.758;2024-03-07T07:19:28;59.45;;;33.88;;
60464;SDS011;46314;52.392;9.758;2024-03-07T07:21:55;65.55;;;35.28;;
60464;SDS011;46314;52.392;9.758;2024-03-07T07:24:22;65.00;;;34.47;;
60464;SDS011;46314;52.392;9.758;2024-03-07T07:26:48;59.00;;;34.42;;
60464;SDS011;46314;52.392;9.758;2024-03-07T07:29:16;59.60;;;34.92;;
60464;SDS011;46314;52.392;9.758;2024-03-07T07:31:43;64.60;;;34.60;;
60464;SDS011;46314;52.392;9.758;2024-03-07T07:34:10;63.72;;;34.28;;
60464;SDS011;46314;52.392;9.758;2024-03-07T07:36:37;60.65;;;35.08;;
60464;SDS011;46314;52.392;9.758;2024-03-07T07:39:03;60.55;;;33.38;;
60464;SDS011;46314;52.392;9.758;2024-03-07T07:41:30;58.08;;;33.15;;
60464;SDS011;46314;52.392;9.758;2024-03-07T07:43:56;58.67;;;33.10;;
60464;SDS011;46314;52.392;9.758;2024-03-07T07:46:24;63.25;;;34.85;;
60464;SDS011;46314;52.392;9.758;2024-03-07T07:48:51;56.63;;;32.70;;
60464;SDS011;46314;52.392;9.758;2024-03-07T07:51:18;61.13;;;34.15;;
60464;SDS011;46314;52.392;9.758;2024-03-07T07:53:44;58.83;;;34.78;;
60464;SDS011;46314;52.392;9.758;2024-03-07T07:56:10;61.60;;;33.97;;
60464;SDS011;46314;52.392;9.758;2024-03-07T07:58:37;60.13;;;32.60;;
60464;SDS011;46314;52.392;9.758;2024-03-07T08:01:03;58.83;;;33.00;;
60464;SDS011;46314;52.392;9.758;2024-03-07T08:03:31;51.60;;;31.27;;
60464;SDS011;46314;52.392;9.758;2024-03-07T08:05:58;49.08;;;30.98;;
60464;SDS011;46314;52.392;9.758;2024-03-07T08:08:24;58.97;;;32.58;;
60464;SDS011;46314;52.392;9.758;2024-03-07T08:10:51;51.53;;;31.90;;
60464;SDS011;46314;52.392;9.758;2024-03-07T08:13:18;50.25;;;31.00;;
60464;SDS011;46314;52.392;9.758;2024-03-07T08:15:44;49.35;;;28.67;;
60464;SDS011;46314;52.392;9.758;2024-03-07T08:18:11;50.28;;;29.98;;
60464;SDS011;46314;52.392;9.758;2024-03-07T08:20:40;47.08;;;29.55;;
60464;SDS011;46314;52.392;9.758;2024-03-07T08:23:08;49.20;;;30.17;;
60464;SDS011;46314;52.392;9.758;2024-03-07T08:25:35;52.58;;;29.70;;
60464;SDS011;46314;52.392;9.758;2024-03-07T08:28:02;58.10;;;29.75;;
60464;SDS011;46314;52.392;9.758;2024-03-07T08:30:28;45.10;;;28.48;;
60464;SDS011;46314;52.392;9.758;2024-03-07T08:32:56;50.17;;;29.15;;
60464;SDS011;46314;52.392;9.758;2024-03-07T08:35:23;48.30;;;28.05;;
60464;SDS011;46314;52.392;9.758;2024-03-07T08:37:53;53.72;;;30.08;;
60464;SDS011;46314;52.392;9.758;2024-03-07T08:40:22;50.13;;;27.75;;
60464;SDS011;46314;52.392;9.758;2024-03-07T08:42:54;50.78;;;28.77;;
60464;SDS011;46314;52.392;9.758;2024-03-07T08:45:22;49.72;;;28.92;;
60464;SDS011;46314;52.392;9.758;2024-03-07T08:47:50;52.05;;;29.35;;
60464;SDS011;46314;52.392;9.758;2024-03-07T08:50:18;52.50;;;29.17;;
60464;SDS011;46314;52.392;9.758;2024-03-07T08:52:45;50.00;;;29.42;;
60464;SDS011;46314;52.392;9.758;2024-03-07T08:55:14;51.03;;;29.15;;
60464;SDS011;46314;52.392;9.758;2024-03-07T08:57:42;46.83;;;27.35;;
60464;SDS011;46314;52.392;9.758;2024-03-07T09:00:09;48.47;;;27.98;;
60464;SDS011;46314;52.392;9.758;2024-03-07T09:02:37;50.72;;;28.08;;
60464;SDS011;46314;52.392;9.758;2024-03-07T09:05:05;56.65;;;30.10;;
60464;SDS011;46314;52.392;9.758;2024-03-07T09:07:32;50.40;;;28.45;;
60464;SDS011;46314;52.392;9.758;2024-03-07T09:09:58;46.28;;;26.75;;
60464;SDS011;46314;52.392;9.758;2024-03-07T09:12:26;49.40;;;27.73;;
60464;SDS011;46314;52.392;9.758;2024-03-07T09:14:53;45.17;;;26.45;;
60464;SDS011;46314;52.392;9.758;2024-03-07T09:17:20;42.78;;;27.83;;
60464;SDS011;46314;52.392;9.758;2024-03-07T09:19:46;44.85;;;26.40;;
60464;SDS011;46314;52.392;9.758;2024-03-07T09:22:13;45.03;;;25.88;;
60464;SDS011;46314;52.392;9.758;2024-03-07T09:24:39;50.33;;;28.02;;
60464;SDS011;46314;52.392;9.758;2024-03-07T09:27:06;45.05;;;27.40;;
60464;SDS011;46314;52.392;9.758;2024-03-07T09:29:34;43.22;;;25.95;;
60464;SDS011;46314;52.392;9.758;2024-03-07T09:32:00;40.33;;;24.70;;
60464;SDS011;46314;52.392;9.758;2024-03-07T09:34:28;39.65;;;25.23;;
60464;SDS011;46314;52.392;9.758;2024-03-07T09:36:54;42.33;;;23.40;;
60464;SDS011;46314;52.392;9.758;2024-03-07T09:39:21;54.10;;;26.25;;
60464;SDS011;46314;52.392;9.758;2024-03-07T09:41:47;44.72;;;26.92;;
60464;SDS011;46314;52.392;9.758;2024-03-07T09:44:16;36.58;;;23.63;;
60464;SDS011;46314;52.392;9.758;2024-03-07T09:46:46;37.05;;;23.98;;
60464;SDS011;46314;52.392;9.758;2024-03-07T09:49:14;39.75;;;23.85;;
60464;SDS011;46314;52.392;9.758;2024-03-07T09:51:41;37.53;;;22.95;;
60464;SDS011;46314;52.392;9.758;2024-03-07T09:54:10;39.75;;;23.70;;
60464;SDS011;46314;52.392;9.758;2024-03-07T09:56:36;39.47;;;23.58;;
60464;SDS011;46314;52.392;9.758;2024-03-07T09:59:03;34.50;;;22.52;;
60464;SDS011;46314;52.392;9.758;2024-03-07T10:01:33;39.85;;;24.50;;
60464;SDS011;46314;52.392;9.758;2024-03-07T10:04:01;41.08;;;24.67;;
60464;SDS011;46314;52.392;9.758;2024-03-07T10:06:28;44.47;;;25.45;;
60464;SDS011;46314;52.392;9.758;2024-03-07T10:08:55;47.50;;;25.23;;
60464;SDS011;46314;52.392;9.758;2024-03-07T10:11:22;45.35;;;24.92;;
60464;SDS011;46314;52.392;9.758;2024-03-07T10:13:48;49.00;;;27.38;;
60464;SDS011;46314;52.392;9.758;2024-03-07T10:16:15;46.03;;;27.05;;
60464;SDS011;46314;52.392;9.758;2024-03-07T10:18:42;46.95;;;26.10;;
60464;SDS011;46314;52.392;9.758;2024-03-07T10:21:10;44.38;;;25.77;;
60464;SDS011;46314;52.392;9.758;2024-03-07T10:23:36;49.90;;;26.05;;
60464;SDS011;46314;52.392;9.758;2024-03-07T10:26:03;48.30;;;25.52;;
60464;SDS011;46314;52.392;9.758;2024-03-07T10:28:30;46.53;;;27.65;;
60464;SDS011;46314;52.392;9.758;2024-03-07T10:30:57;54.20;;;27.20;;
60464;SDS011;46314;52.392;9.758;2024-03-07T10:33:26;50.65;;;25.77;;
60464;SDS011;46314;52.392;9.758;2024-03-07T10:35:53;60.30;;;30.33;;
60464;SDS011;46314;52.392;9.758;2024-03-07T10:38:21;56.78;;;29.73;;
60464;SDS011;46314;52.392;9.758;2024-03-07T10:40:48;47.70;;;29.35;;
60464;SDS011;46314;52.392;9.758;2024-03-07T10:43:19;60.20;;;30.67;;
60464;SDS011;46314;52.392;9.758;2024-03-07T10:45:47;54.20;;;27.92;;
60464;SDS011;46314;52.392;9.758;2024-03-07T10:48:16;56.80;;;29.15;;
60464;SDS011;46314;52.392;9.758;2024-03-07T10:50:52;53.70;;;28.80;;
60464;SDS011;46314;52.392;9.758;2024-03-07T10:53:31;54.03;;;29.85;;
60464;SDS011;46314;52.392;9.758;2024-03-07T10:56:05;62.03;;;28.88;;
60464;SDS011;46314;52.392;9.758;2024-03-07T10:58:47;62.50;;;30.83;;
60464;SDS011;46314;52.392;9.758;2024-03-07T11:01:23;70.45;;;29.23;;
60464;SDS011;46314;52.392;9.758;2024-03-07T11:03:52;50.47;;;26.77;;
60464;SDS011;46314;52.392;9.758;2024-03-07T11:06:19;56.90;;;29.63;;
60464;SDS011;46314;52.392;9.758;2024-03-07T11:08:47;52.67;;;28.42;;
60464;SDS011;46314;52.392;9.758;2024-03-07T11:11:15;55.35;;;28.10;;
60464;SDS011;46314;52.392;9.758;2024-03-07T11:13:41;55.22;;;28.08;;
60464;SDS011;46314;52.392;9.758;2024-03-07T11:16:08;54.22;;;29.15;;
60464;SDS011;46314;52.392;9.758;2024-03-07T11:18:35;51.45;;;29.10;;
60464;SDS011;46314;52.392;9.758;2024-03-07T11:21:02;47.50;;;27.63;;
60464;SDS011;46314;52.392;9.758;2024-03-07T11:23:29;54.33;;;30.25;;
60464;SDS011;46314;52.392;9.758;2024-03-07T11:26:04;50.75;;;29.20;;
60464;SDS011;46314;52.392;9.758;2024-03-07T11:28:32;52.53;;;27.65;;
60464;SDS011;46314;52.392;9.758;2024-03-07T11:31:06;51.30;;;28.10;;
60464;SDS011;46314;52.392;9.758;2024-03-07T11:33:33;50.45;;;29.58;;
60464;SDS011;46314;52.392;9.758;2024-03-07T11:36:00;56.05;;;29.08;;
60464;SDS011;46314;52.392;9.758;2024-03-07T11:38:30;52.88;;;28.67;;
60464;SDS011;46314;52.392;9.758;2024-03-07T11:40:58;58.67;;;29.27;;
60464;SDS011;46314;52.392;9.758;2024-03-07T11:43:27;47.75;;;28.65;;
60464;SDS011;46314;52.392;9.758;2024-03-07T11:45:54;52.58;;;28.55;;
60464;SDS011;46314;52.392;9.758;2024-03-07T11:48:20;46.72;;;27.23;;
60464;SDS011;46314;52.392;9.758;2024-03-07T11:50:47;45.20;;;28.15;;
60464;SDS011;46314;52.392;9.758;2024-03-07T11:53:14;44.60;;;26.70;;
60464;SDS011;46314;52.392;9.758;2024-03-07T11:55:41;43.03;;;26.00;;
60464;SDS011;46314;52.392;9.758;2024-03-07T11:58:07;53.65;;;27.23;;
60464;SDS011;46314;52.392;9.758;2024-03-07T12:00:37;43.80;;;27.27;;
60464;SDS011;46314;52.392;9.758;2024-03-07T12:03:04;43.80;;;25.85;;
60464;SDS011;46314;52.392;9.758;2024-03-07T12:05:31;42.85;;;25.65;;
60464;SDS011;46314;52.392;9.758;2024-03-07T12:07:59;45.03;;;26.15;;
60464;SDS011;46314;52.392;9.758;2024-03-07T12:10:25;42.33;;;26.35;;
60464;SDS011;46314;52.392;9.758;2024-03-07T12:12:52;41.92;;;26.08;;
60464;SDS011;46314;52.392;9.758;2024-03-07T12:15:19;43.45;;;24.45;;
60464;SDS011;46314;52.392;9.758;2024-03-07T12:17:48;42.80;;;24.85;;
60464;SDS011;46314;52.392;9.758;2024-03-07T12:20:17;43.00;;;24.95;;
60464;SDS011;46314;52.392;9.758;2024-03-07T12:22:44;37.30;;;23.55;;
60464;SDS011;46314;52.392;9.758;2024-03-07T12:25:10;36.28;;;22.13;;
60464;SDS011;46314;52.392;9.758;2024-03-07T12:27:37;37.30;;;22.90;;
60464;SDS011;46314;52.392;9.758;2024-03-07T12:30:03;40.38;;;23.70;;
60464;SDS011;46314;52.392;9.758;2024-03-07T12:32:43;33.55;;;22.42;;
60464;SDS011;46314;52.392;9.758;2024-03-07T12:35:15;37.22;;;21.52;;
60464;SDS011;46314;52.392;9.758;2024-03-07T12:37:41;36.63;;;21.95;;
60464;SDS011;46314;52.392;9.758;2024-03-07T12:40:11;36.20;;;22.75;;
60464;SDS011;46314;52.392;9.758;2024-03-07T12:42:38;37.03;;;23.00;;
60464;SDS011;46314;52.392;9.758;2024-03-07T12:45:05;39.92;;;24.05;;
60464;SDS011;46314;52.392;9.758;2024-03-07T12:47:33;40.10;;;23.27;;
60464;SDS011;46314;52.392;9.758;2024-03-07T12:50:02;41.47;;;24.73;;
60464;SDS011;46314;52.392;9.758;2024-03-07T12:52:29;42.38;;;22.83;;
60464;SDS011;46314;52.392;9.758;2024-03-07T12:54:55;37.80;;;23.35;;
60464;SDS011;46314;52.392;9.758;2024-03-07T12:57:22;38.92;;;23.38;;
60464;SDS011;46314;52.392;9.758;2024-03-07T12:59:49;42.28;;;23.60;;
60464;SDS011;46314;52.392;9.758;2024-03-07T13:02:16;39.97;;;24.90;;
60464;SDS011;46314;52.392;9.758;2024-03-07T13:04:43;38.65;;;24.92;;
60464;SDS011;46314;52.392;9.758;2024-03-07T13:07:11;36.08;;;22.45;;
60464;SDS011;46314;52.392;9.758;2024-03-07T13:09:37;39.10;;;23.15;;
60464;SDS011;46314;52.392;9.758;2024-03-07T13:12:04;33.25;;;22.95;;
60464;SDS011;46314;52.392;9.758;2024-03-07T13:14:31;35.70;;;23.52;;
60464;SDS011;46314;52.392;9.758;2024-03-07T13:16:57;37.20;;;23.15;;
60464;SDS011;46314;52.392;9.758;2024-03-07T13:19:24;35.92;;;24.52;;
60464;SDS011;46314;52.392;9.758;2024-03-07T13:21:50;42.97;;;24.63;;
60464;SDS011;46314;52.392;9.758;2024-03-07T13:24:18;32.83;;;21.80;;
60464;SDS011;46314;52.392;9.758;2024-03-07T13:26:45;30.85;;;21.02;;
60464;SDS011;46314;52.392;9.758;2024-03-07T13:29:12;33.17;;;21.58;;
60464;SDS011;46314;52.392;9.758;2024-03-07T13:31:39;36.20;;;23.40;;
60464;SDS011;46314;52.392;9.758;2024-03-07T13:34:05;33.40;;;21.85;;
60464;SDS011;46314;52.392;9.758;2024-03-07T13:36:32;33.17;;;22.25;;
60464;SDS011;46314;52.392;9.758;2024-03-07T13:38:58;32.00;;;21.92;;
60464;SDS011;46314;52.392;9.758;2024-03-07T13:41:26;35.47;;;23.15;;
60464;SDS011;46314;52.392;9.758;2024-03-07T13:43:53;36.63;;;21.70;;
60464;SDS011;46314;52.392;9.758;2024-03-07T13:46:19;29.08;;;20.73;;
60464;SDS011;46314;52.392;9.758;2024-03-07T13:48:46;33.53;;;21.30;;
60464;SDS011;46314;52.392;9.758;2024-03-07T13:51:12;31.08;;;20.27;;
60464;SDS011;46314;52.392;9.758;2024-03-07T13:53:39;32.08;;;21.38;;
60464;SDS011;46314;52.392;9.758;2024-03-07T13:59:26;32.75;;;20.02;;
60464;SDS011;46314;52.392;9.758;2024-03-07T14:02:04;29.00;;;21.33;;
60464;SDS011;46314;52.392;9.758;2024-03-07T14:04:45;29.30;;;19.38;;
60464;SDS011;46314;52.392;9.758;2024-03-07T14:07:35;26.63;;;19.67;;
60464;SDS011;46314;52.392;9.758;2024-03-07T14:10:22;31.17;;;19.77;;
60464;SDS011;46314;52.392;9.758;2024-03-07T14:13:17;28.48;;;19.35;;
60464;SDS011;46314;52.392;9.758;2024-03-07T14:16:01;26.30;;;19.55;;
60464;SDS011;46314;52.392;9.758;2024-03-07T14:21:52;35.80;;;20.48;;
60464;SDS011;46314;52.392;9.758;2024-03-07T14:24:36;25.15;;;18.73;;
60464;SDS011;46314;52.392;9.758;2024-03-07T14:27:24;29.48;;;19.83;;
60464;SDS011;46314;52.392;9.758;2024-03-07T14:30:00;27.33;;;19.25;;